createdAt,value
2018-05-21T00:00:10.328Z,12.59
2018-05-21T00:01:10.269Z,12.54
2018-05-21T00:02:10.236Z,12.56
2018-05-21T00:03:10.194Z,12.57
2018-05-21T00:04:10.146Z,12.47
2018-05-21T00:05:10.133Z,12.45
2018-05-21T00:06:10.079Z,12.35
2018-05-21T00:07:10.036Z,12.42
2018-05-21T00:08:10.001Z,12.38
2018-05-21T00:09:09.960Z,12.31
2018-05-21T00:10:09.941Z,12.28
2018-05-21T00:11:09.874Z,12.29
2018-05-21T00:12:09.835Z,12.27
2018-05-21T00:13:09.797Z,12.32
2018-05-21T00:14:09.767Z,12.28
2018-05-21T00:15:09.726Z,12.28
2018-05-21T00:16:09.710Z,12.29
2018-05-21T00:17:09.645Z,12.31
2018-05-21T00:18:09.603Z,12.37
2018-05-21T00:19:09.559Z,12.29
2018-05-21T00:20:09.548Z,12.34
2018-05-21T00:21:09.484Z,12.28
2018-05-21T00:22:09.444Z,12.27
2018-05-21T00:23:09.403Z,12.27
2018-05-21T00:24:09.364Z,12.34
2018-05-21T00:25:09.344Z,12.32
2018-05-21T00:26:09.291Z,12.16
2018-05-21T00:27:09.255Z,12.21
2018-05-21T00:28:09.216Z,12.20
2018-05-21T00:29:09.176Z,12.14
2018-05-21T00:30:09.152Z,12.16
2018-05-21T00:31:09.093Z,12.02
2018-05-21T00:32:09.046Z,12.01
2018-05-21T00:33:09.007Z,11.99
2018-05-21T00:34:08.974Z,12.01
2018-05-21T00:35:08.937Z,11.90
2018-05-21T00:36:08.913Z,11.83
2018-05-21T00:37:08.852Z,11.99
2018-05-21T00:38:08.819Z,11.88
2018-05-21T00:39:08.777Z,11.85
2018-05-21T00:40:08.767Z,11.96
2018-05-21T00:41:08.697Z,11.95
2018-05-21T00:42:08.653Z,11.86
2018-05-21T00:43:08.612Z,11.95
2018-05-21T00:44:08.576Z,11.88
2018-05-21T00:45:08.551Z,11.95
2018-05-21T00:46:08.524Z,11.88
2018-05-21T00:47:08.501Z,11.88
2018-05-21T00:48:08.424Z,11.85
2018-05-21T00:49:08.381Z,11.85
2018-05-21T00:50:08.362Z,11.78
2018-05-21T00:51:08.299Z,11.78
2018-05-21T00:52:08.267Z,11.72
2018-05-21T00:53:08.224Z,11.75
2018-05-21T00:54:08.182Z,11.86
2018-05-21T00:55:08.148Z,11.70
2018-05-21T00:56:08.124Z,11.72
2018-05-21T00:57:08.062Z,11.86
2018-05-21T00:58:08.030Z,11.86
2018-05-21T00:59:07.989Z,11.76
2018-05-21T01:00:07.951Z,11.91
2018-05-21T01:01:07.936Z,11.88
2018-05-21T01:02:07.864Z,11.83
2018-05-21T01:03:07.827Z,11.73
2018-05-21T01:04:07.788Z,11.72
2018-05-21T01:05:07.742Z,11.78
2018-05-21T01:06:07.715Z,11.73
2018-05-21T01:07:07.696Z,11.80
2018-05-21T01:08:07.628Z,11.76
2018-05-21T01:09:07.590Z,11.85
2018-05-21T01:10:07.553Z,11.79
2018-05-21T01:11:07.511Z,11.78
2018-05-21T01:12:07.501Z,11.73
2018-05-21T01:13:07.433Z,11.70
2018-05-21T01:14:07.391Z,11.72
2018-05-21T01:15:07.345Z,11.78
2018-05-21T01:16:07.310Z,11.75
2018-05-21T01:17:07.294Z,11.72
2018-05-21T01:18:07.236Z,11.61
2018-05-21T01:19:07.195Z,11.76
2018-05-21T01:20:07.158Z,11.72
2018-05-21T01:21:07.113Z,11.73
2018-05-21T01:22:07.073Z,11.65
2018-05-21T01:23:07.053Z,11.57
2018-05-21T01:24:06.993Z,11.61
2018-05-21T01:25:06.959Z,11.52
2018-05-21T01:26:06.912Z,11.40
2018-05-21T01:27:06.869Z,11.36
2018-05-21T01:28:06.855Z,11.32
2018-05-21T01:29:06.793Z,11.33
2018-05-21T01:30:06.759Z,11.27
2018-05-21T01:31:06.720Z,11.35
2018-05-21T01:32:06.676Z,11.37
2018-05-21T01:33:06.672Z,11.24
2018-05-21T01:34:06.592Z,11.35
2018-05-21T01:35:06.553Z,11.27
2018-05-21T01:36:06.516Z,11.10
2018-05-21T01:37:06.477Z,11.15
2018-05-21T01:38:06.438Z,11.15
2018-05-21T01:39:06.416Z,11.10
2018-05-21T01:40:06.356Z,11.11
2018-05-21T01:41:06.320Z,11.09
2018-05-21T01:42:06.283Z,11.14
2018-05-21T01:43:06.237Z,11.11
2018-05-21T01:44:06.229Z,11.14
2018-05-21T01:45:06.164Z,11.14
2018-05-21T01:46:06.116Z,11.11
2018-05-21T01:47:06.077Z,11.07
2018-05-21T01:48:06.039Z,11.10
2018-05-21T01:49:05.999Z,11.17
2018-05-21T01:50:05.985Z,11.14
2018-05-21T01:51:05.922Z,11.09
2018-05-21T01:52:05.884Z,11.18
2018-05-21T01:53:05.841Z,11.18
2018-05-21T01:54:05.826Z,11.19
2018-05-21T01:55:05.759Z,11.10
2018-05-21T01:56:05.727Z,11.22
2018-05-21T01:57:05.686Z,11.07
2018-05-21T01:58:05.637Z,11.11
2018-05-21T01:59:05.598Z,11.18
2018-05-21T02:00:05.575Z,11.10
2018-05-21T02:01:05.517Z,11.10
2018-05-21T02:02:05.485Z,11.17
2018-05-21T02:03:05.444Z,11.14
2018-05-21T02:04:05.429Z,11.15
2018-05-21T02:05:05.365Z,11.14
2018-05-21T02:06:05.318Z,11.10
2018-05-21T02:07:05.281Z,10.96
2018-05-21T02:08:05.277Z,11.04
2018-05-21T02:09:05.199Z,11.03
2018-05-21T02:10:05.189Z,11.04
2018-05-21T02:11:05.133Z,10.99
2018-05-21T02:12:05.079Z,11.02
2018-05-21T02:13:05.044Z,10.97
2018-05-21T02:14:05.006Z,11.03
2018-05-21T02:15:04.989Z,10.92
2018-05-21T02:16:04.925Z,10.92
2018-05-21T02:17:04.886Z,10.96
2018-05-21T02:18:04.856Z,10.94
2018-05-21T02:19:04.797Z,10.86
2018-05-21T02:20:04.847Z,10.81
2018-05-21T02:21:04.720Z,10.82
2018-05-21T02:22:04.686Z,10.85
2018-05-21T02:23:04.647Z,10.89
2018-05-21T02:24:04.606Z,10.88
2018-05-21T02:25:04.572Z,10.89
2018-05-21T02:26:04.547Z,10.88
2018-05-21T02:27:04.485Z,10.84
2018-05-21T02:28:04.445Z,10.81
2018-05-21T02:29:04.410Z,10.81
2018-05-21T02:30:04.360Z,10.81
2018-05-21T02:31:04.322Z,10.85
2018-05-21T02:32:04.301Z,10.70
2018-05-21T02:33:04.238Z,10.82
2018-05-21T02:34:04.206Z,10.78
2018-05-21T02:35:04.167Z,10.76
2018-05-21T02:36:04.153Z,10.79
2018-05-21T02:37:04.086Z,10.81
2018-05-21T02:38:04.035Z,10.78
2018-05-21T02:39:03.998Z,10.86
2018-05-21T02:40:03.964Z,10.76
2018-05-21T02:41:03.959Z,10.79
2018-05-21T02:42:03.897Z,10.81
2018-05-21T02:43:03.847Z,10.76
2018-05-21T02:44:03.800Z,10.74
2018-05-21T02:45:03.759Z,10.79
2018-05-21T02:46:03.731Z,10.82
2018-05-21T02:47:03.711Z,10.68
2018-05-21T02:48:03.647Z,10.61
2018-05-21T02:49:03.607Z,10.73
2018-05-21T02:50:03.560Z,10.73
2018-05-21T02:51:03.521Z,10.78
2018-05-21T02:52:03.508Z,10.71
2018-05-21T02:53:03.441Z,10.64
2018-05-21T02:54:03.413Z,10.56
2018-05-21T02:55:03.364Z,10.61
2018-05-21T02:56:03.328Z,10.59
2018-05-21T02:57:03.291Z,10.56
2018-05-21T02:58:03.269Z,10.60
2018-05-21T02:59:03.200Z,10.63
2018-05-21T03:00:03.169Z,10.67
2018-05-21T03:01:03.126Z,10.66
2018-05-21T03:02:03.144Z,10.70
2018-05-21T03:03:03.061Z,10.78
2018-05-21T03:04:03.003Z,10.81
2018-05-21T03:05:02.962Z,10.78
2018-05-21T03:06:02.923Z,10.84
2018-05-21T03:07:02.891Z,10.81
2018-05-21T03:08:02.868Z,10.78
2018-05-21T03:09:02.805Z,10.79
2018-05-21T03:10:02.758Z,10.76
2018-05-21T03:11:02.717Z,10.78
2018-05-21T03:12:02.682Z,10.67
2018-05-21T03:13:02.660Z,10.66
2018-05-21T03:14:02.608Z,10.64
2018-05-21T03:15:02.564Z,10.63
2018-05-21T03:16:02.520Z,10.61
2018-05-21T03:17:02.479Z,10.63
2018-05-21T03:18:02.472Z,10.70
2018-05-21T03:19:02.407Z,10.63
2018-05-21T03:20:02.364Z,10.61
2018-05-21T03:21:02.329Z,10.64
2018-05-21T03:22:02.276Z,10.59
2018-05-21T03:23:02.240Z,10.52
2018-05-21T03:24:02.220Z,10.59
2018-05-21T03:25:02.159Z,10.59
2018-05-21T03:26:02.125Z,10.63
2018-05-21T03:27:02.085Z,10.66
2018-05-21T03:28:02.045Z,10.63
2018-05-21T03:29:12.841Z,10.74
2018-05-21T03:30:01.970Z,10.81
2018-05-21T03:31:01.929Z,10.79
2018-05-21T03:32:01.877Z,10.76
2018-05-21T03:33:01.836Z,10.81
2018-05-21T03:34:01.801Z,10.84
2018-05-21T03:35:01.779Z,10.79
2018-05-21T03:36:01.728Z,10.76
2018-05-21T03:37:01.685Z,10.85
2018-05-21T03:38:01.648Z,10.86
2018-05-21T03:39:01.601Z,10.89
2018-05-21T03:40:01.575Z,11.02
2018-05-21T03:41:01.516Z,11.03
2018-05-21T03:42:01.481Z,10.96
2018-05-21T03:43:01.461Z,11.02
2018-05-21T03:44:01.500Z,11.07
2018-05-21T03:45:01.390Z,11.15
2018-05-21T03:46:01.318Z,11.19
2018-05-21T03:47:01.276Z,11.21
2018-05-21T03:48:01.245Z,11.24
2018-05-21T03:49:01.206Z,11.28
2018-05-21T03:50:01.174Z,11.32
2018-05-21T03:51:01.144Z,11.27
2018-05-21T03:52:01.080Z,11.27
2018-05-21T03:53:01.037Z,11.33
2018-05-21T03:54:00.999Z,11.33
2018-05-21T03:55:00.961Z,11.39
2018-05-21T03:56:00.953Z,11.42
2018-05-21T03:57:00.965Z,11.39
2018-05-21T03:58:00.844Z,11.43
2018-05-21T03:59:00.806Z,11.42
2018-05-21T04:00:00.759Z,11.43
2018-05-21T04:01:00.719Z,11.51
2018-05-21T04:02:00.707Z,11.46
2018-05-21T04:03:00.644Z,11.54
2018-05-21T04:04:00.599Z,11.55
2018-05-21T04:05:00.562Z,11.51
2018-05-21T04:06:00.520Z,11.52
2018-05-21T04:07:00.506Z,11.55
2018-05-21T04:08:00.452Z,11.58
2018-05-21T04:09:00.405Z,11.61
2018-05-21T04:10:00.371Z,11.58
2018-05-21T04:11:00.334Z,11.61
2018-05-21T04:12:00.462Z,11.65
2018-05-21T04:13:00.261Z,11.69
2018-05-21T04:14:00.203Z,11.70
2018-05-21T04:15:00.164Z,11.72
2018-05-21T04:16:11.358Z,11.72
2018-05-21T04:17:00.085Z,11.76
2018-05-21T04:18:00.078Z,11.72
2018-05-21T04:19:00.009Z,11.73
2018-05-21T04:19:59.973Z,11.86
2018-05-21T04:20:59.933Z,11.85
2018-05-21T04:21:59.887Z,11.95
2018-05-21T04:22:59.843Z,11.88
2018-05-21T04:24:09.411Z,11.99
2018-05-21T04:24:59.772Z,11.99
2018-05-21T04:25:59.735Z,12.12
2018-05-21T04:26:59.694Z,12.14
2018-05-21T04:27:59.650Z,12.19
2018-05-21T04:28:59.630Z,12.28
2018-05-21T04:29:59.578Z,12.39
2018-05-21T04:30:59.543Z,12.49
2018-05-21T04:31:59.490Z,12.47
2018-05-21T04:32:59.449Z,12.54
2018-05-21T04:33:59.430Z,12.67
2018-05-21T04:34:59.368Z,12.65
2018-05-21T04:35:59.346Z,12.56
2018-05-21T04:36:59.300Z,12.71
2018-05-21T04:37:59.259Z,12.74
2018-05-21T04:38:59.246Z,12.77
2018-05-21T04:39:59.175Z,12.85
2018-05-21T04:40:59.137Z,12.87
2018-05-21T04:41:59.094Z,13.26
2018-05-21T04:42:59.057Z,14.06
2018-05-21T04:43:59.023Z,15.34
2018-05-21T04:44:59.013Z,16.25
2018-05-21T04:45:58.940Z,17.12
2018-05-21T04:46:58.911Z,17.68
2018-05-21T04:47:58.869Z,17.90
2018-05-21T04:48:58.829Z,17.78
2018-05-21T04:49:58.796Z,17.31
2018-05-21T04:50:58.772Z,16.61
2018-05-21T04:51:58.707Z,16.31
2018-05-21T04:52:58.668Z,16.12
2018-05-21T04:53:58.631Z,16.08
2018-05-21T04:54:58.590Z,16.35
2018-05-21T04:55:58.587Z,17.23
2018-05-21T04:56:58.528Z,18.08
2018-05-21T04:57:58.484Z,18.98
2018-05-21T04:58:58.450Z,19.68
2018-05-21T04:59:58.407Z,20.17
2018-05-21T05:00:58.371Z,20.39
2018-05-21T05:01:58.359Z,20.70
2018-05-21T05:02:58.300Z,20.51
2018-05-21T05:03:58.255Z,20.87
2018-05-21T05:04:58.216Z,21.53
2018-05-21T05:05:58.179Z,21.53
2018-05-21T05:06:58.165Z,22.06
2018-05-21T05:07:58.117Z,22.88
2018-05-21T05:08:58.078Z,22.76
2018-05-21T05:09:58.043Z,23.09
2018-05-21T05:10:58.006Z,23.36
2018-05-21T05:11:57.994Z,22.94
2018-05-21T05:12:57.933Z,22.64
2018-05-21T05:13:57.895Z,21.92
2018-05-21T05:14:57.859Z,20.42
2018-05-21T05:15:57.841Z,19.47
2018-05-21T05:16:57.798Z,19.13
2018-05-21T05:17:57.780Z,19.55
2018-05-21T05:18:57.723Z,19.61
2018-05-21T05:19:57.692Z,20.58
2018-05-21T05:20:57.745Z,20.94
2018-05-21T05:21:57.643Z,21.29
2018-05-21T05:22:57.589Z,20.59
2018-05-21T05:23:57.544Z,20.02
2018-05-21T05:24:57.513Z,19.66
2018-05-21T05:25:57.475Z,19.06
2018-05-21T05:26:57.459Z,18.67
2018-05-21T05:27:57.416Z,18.44
2018-05-21T05:28:57.379Z,18.36
2018-05-21T05:29:57.345Z,18.33
2018-05-21T05:30:57.307Z,18.30
2018-05-21T05:31:57.304Z,18.37
2018-05-21T05:32:57.241Z,18.44
2018-05-21T05:33:57.205Z,18.75
2018-05-21T05:34:57.171Z,18.45
2018-05-21T05:35:57.134Z,18.50
2018-05-21T05:36:57.118Z,18.25
2018-05-21T05:37:57.058Z,18.15
2018-05-21T05:38:57.019Z,18.00
2018-05-21T05:39:56.992Z,17.89
2018-05-21T05:40:56.959Z,17.92
2018-05-21T05:41:56.951Z,17.82
2018-05-21T05:42:56.922Z,17.75
2018-05-21T05:43:56.845Z,17.74
2018-05-21T05:44:56.821Z,17.63
2018-05-21T05:45:56.772Z,17.68
2018-05-21T05:46:56.739Z,17.68
2018-05-21T05:47:56.732Z,17.46
2018-05-21T05:48:56.699Z,17.41
2018-05-21T05:49:56.629Z,17.43
2018-05-21T05:50:56.593Z,17.48
2018-05-21T05:51:56.563Z,17.51
2018-05-21T05:52:56.552Z,17.54
2018-05-21T05:53:56.495Z,17.71
2018-05-21T05:54:56.461Z,17.68
2018-05-21T05:55:56.416Z,17.89
2018-05-21T05:56:56.380Z,17.99
2018-05-21T05:57:56.343Z,17.90
2018-05-21T05:58:56.331Z,17.99
2018-05-21T05:59:56.281Z,17.99
2018-05-21T06:00:56.245Z,17.97
2018-05-21T06:01:56.203Z,18.18
2018-05-21T06:02:56.165Z,18.18
2018-05-21T06:03:56.126Z,18.20
2018-05-21T06:04:56.111Z,18.29
2018-05-21T06:05:56.066Z,18.67
2018-05-21T06:06:56.031Z,19.25
2018-05-21T06:07:55.985Z,20.33
2018-05-21T06:08:55.948Z,21.37
2018-05-21T06:09:55.923Z,21.59
2018-05-21T06:10:55.901Z,21.29
2018-05-21T06:11:55.849Z,20.98
2018-05-21T06:12:55.806Z,20.58
2018-05-21T06:13:55.773Z,20.32
2018-05-21T06:14:55.736Z,20.28
2018-05-21T06:15:55.717Z,20.32
2018-05-21T06:16:55.661Z,20.35
2018-05-21T06:17:55.623Z,20.54
2018-05-21T06:18:55.589Z,21.03
2018-05-21T06:19:55.561Z,21.34
2018-05-21T06:20:55.552Z,21.79
2018-05-21T06:21:55.482Z,22.20
2018-05-21T06:22:55.445Z,22.17
2018-05-21T06:23:55.415Z,22.15
2018-05-21T06:24:55.382Z,21.83
2018-05-21T06:25:55.399Z,21.16
2018-05-21T06:26:55.335Z,20.99
2018-05-21T06:27:55.269Z,20.35
2018-05-21T06:28:55.236Z,20.02
2018-05-21T06:29:55.203Z,20.10
2018-05-21T06:30:55.170Z,20.03
2018-05-21T06:31:55.227Z,19.94
2018-05-21T06:32:55.105Z,19.84
2018-05-21T06:33:55.126Z,19.76
2018-05-21T06:34:55.037Z,19.78
2018-05-21T06:35:54.993Z,19.63
2018-05-21T06:36:54.958Z,19.91
2018-05-21T06:37:54.953Z,20.06
2018-05-21T06:38:54.899Z,20.11
2018-05-21T06:39:54.859Z,20.32
2018-05-21T06:40:54.819Z,20.42
2018-05-21T06:41:54.783Z,20.58
2018-05-21T06:42:54.777Z,20.84
2018-05-21T06:43:54.729Z,20.98
2018-05-21T06:44:54.690Z,21.50
2018-05-21T06:45:54.650Z,22.30
2018-05-21T06:46:54.616Z,22.52
2018-05-21T06:47:54.574Z,22.72
2018-05-21T06:48:54.570Z,23.16
2018-05-21T06:49:54.506Z,23.60
2018-05-21T06:50:54.472Z,23.84
2018-05-21T06:51:54.448Z,24.43
2018-05-21T06:52:54.423Z,24.96
2018-05-21T06:53:54.378Z,24.49
2018-05-21T06:54:54.369Z,24.15
2018-05-21T06:55:54.307Z,24.06
2018-05-21T06:56:54.275Z,24.55
2018-05-21T06:57:54.240Z,24.99
2018-05-21T06:58:54.211Z,25.67
2018-05-21T07:00:03.976Z,27.07
2018-05-21T07:00:54.134Z,28.07
2018-05-21T07:01:54.105Z,29.14
2018-05-21T07:02:54.100Z,29.39
2018-05-21T07:03:54.042Z,30.34
2018-05-21T07:04:54.031Z,30.99
2018-05-21T07:05:53.969Z,31.68
2018-05-21T07:06:53.939Z,31.39
2018-05-21T07:07:53.984Z,32.03
2018-05-21T07:08:53.884Z,32.79
2018-05-21T07:10:02.497Z,33.38
2018-05-21T07:10:53.814Z,33.81
2018-05-21T07:11:53.788Z,32.50
2018-05-21T07:12:53.762Z,31.88
2018-05-21T07:13:53.723Z,32.03
2018-05-21T07:14:53.722Z,30.34
2018-05-21T07:15:53.673Z,30.26
2018-05-21T07:16:53.626Z,29.68
2018-05-21T07:17:53.593Z,29.55
2018-05-21T07:18:53.561Z,29.39
2018-05-21T07:19:53.539Z,30.20
2018-05-21T07:20:53.533Z,30.47
2018-05-21T07:21:53.477Z,29.85
2018-05-21T07:22:53.443Z,29.19
2018-05-21T07:23:53.418Z,29.26
2018-05-21T07:24:53.412Z,29.85
2018-05-21T07:25:53.359Z,29.86
2018-05-21T07:26:53.333Z,28.85
2018-05-21T07:27:53.292Z,29.05
2018-05-21T07:28:53.262Z,28.92
2018-05-21T07:29:53.250Z,28.78
2018-05-21T07:30:53.202Z,28.40
2018-05-21T07:31:53.178Z,28.31
2018-05-21T07:32:53.152Z,27.74
2018-05-21T07:33:53.115Z,27.50
2018-05-21T07:34:53.108Z,27.25
2018-05-21T07:35:53.045Z,26.95
2018-05-21T07:36:53.024Z,27.49
2018-05-21T07:37:52.999Z,27.25
2018-05-21T07:38:53.093Z,27.25
2018-05-21T07:39:52.949Z,26.84
2018-05-21T07:40:52.898Z,25.98
2018-05-21T07:41:52.865Z,25.87
2018-05-21T07:42:52.834Z,25.82
2018-05-21T07:43:52.812Z,25.33
2018-05-21T07:44:52.827Z,25.35
2018-05-21T07:45:52.751Z,25.08
2018-05-21T07:46:52.717Z,25.08
2018-05-21T07:47:52.684Z,25.20
2018-05-21T07:48:52.649Z,25.50
2018-05-21T07:49:52.640Z,25.64
2018-05-21T07:50:52.585Z,25.73
2018-05-21T07:51:52.557Z,25.87
2018-05-21T07:52:52.527Z,25.88
2018-05-21T07:53:52.508Z,25.87
2018-05-21T07:54:52.457Z,26.25
2018-05-21T07:55:52.434Z,26.26
2018-05-21T07:56:52.416Z,26.26
2018-05-21T07:57:52.369Z,25.82
2018-05-21T07:58:52.364Z,25.75
2018-05-21T07:59:52.299Z,25.54
2018-05-21T08:00:52.274Z,25.82
2018-05-21T08:01:52.237Z,26.09
2018-05-21T08:02:52.204Z,26.25
2018-05-21T08:03:52.208Z,26.40
2018-05-21T08:04:52.151Z,26.85
2018-05-21T08:05:52.129Z,26.92
2018-05-21T08:06:52.084Z,27.12
2018-05-21T08:07:52.051Z,27.25
2018-05-21T08:08:52.039Z,27.32
2018-05-21T08:09:51.989Z,26.89
2018-05-21T08:10:51.967Z,27.43
2018-05-21T08:11:51.921Z,27.78
2018-05-21T08:12:51.906Z,28.27
2018-05-21T08:13:51.883Z,28.36
2018-05-21T08:14:51.967Z,29.21
2018-05-21T08:15:51.806Z,29.57
2018-05-21T08:16:51.776Z,29.95
2018-05-21T08:17:51.743Z,30.54
2018-05-21T08:18:51.737Z,30.88
2018-05-21T08:19:51.677Z,31.23
2018-05-21T08:20:51.647Z,31.25
2018-05-21T08:21:51.616Z,30.88
2018-05-21T08:22:51.588Z,30.82
2018-05-21T08:23:51.587Z,30.32
2018-05-21T08:24:51.542Z,29.57
2018-05-21T08:25:51.503Z,28.73
2018-05-21T08:26:51.473Z,28.58
2018-05-21T08:27:51.473Z,28.98
2018-05-21T08:28:51.431Z,29.21
2018-05-21T08:29:51.399Z,29.43
2018-05-21T08:30:51.369Z,29.94
2018-05-21T08:31:51.331Z,30.67
2018-05-21T08:32:51.330Z,31.20
2018-05-21T08:33:51.275Z,31.81
2018-05-21T08:34:51.250Z,31.84
2018-05-21T08:35:51.230Z,31.85
2018-05-21T08:36:51.202Z,32.14
2018-05-21T08:37:51.196Z,32.62
2018-05-21T08:38:51.145Z,32.59
2018-05-21T08:39:51.117Z,31.56
2018-05-21T08:40:51.085Z,30.80
2018-05-21T08:41:51.068Z,30.73
2018-05-21T08:42:51.060Z,30.26
2018-05-21T08:43:51.009Z,29.98
2018-05-21T08:44:50.978Z,29.89
2018-05-21T08:45:50.952Z,29.92
2018-05-21T08:46:50.925Z,30.23
2018-05-21T08:47:50.928Z,30.23
2018-05-21T08:48:50.956Z,30.51
2018-05-21T08:49:50.863Z,30.10
2018-05-21T08:50:50.828Z,29.74
2018-05-21T08:51:50.791Z,29.67
2018-05-21T08:52:50.791Z,30.02
2018-05-21T08:53:50.745Z,29.87
2018-05-21T08:54:50.719Z,30.38
2018-05-21T08:55:50.702Z,30.65
2018-05-21T08:56:50.674Z,30.13
2018-05-21T08:57:50.656Z,29.71
2018-05-21T08:58:50.695Z,30.02
2018-05-21T08:59:50.591Z,29.92
2018-05-21T09:00:50.566Z,29.89
2018-05-21T09:01:50.563Z,29.63
2018-05-21T09:02:50.519Z,29.58
2018-05-21T09:03:50.478Z,30.05
2018-05-21T09:04:50.453Z,29.18
2018-05-21T09:05:50.430Z,28.71
2018-05-21T09:06:50.426Z,29.19
2018-05-21T09:07:50.387Z,29.34
2018-05-21T09:08:50.355Z,28.31
2018-05-21T09:09:50.331Z,28.31
2018-05-21T09:10:50.301Z,27.88
2018-05-21T09:11:50.296Z,28.17
2018-05-21T09:12:50.244Z,28.27
2018-05-21T09:13:50.225Z,28.51
2018-05-21T09:14:50.196Z,28.74
2018-05-21T09:15:50.163Z,29.26
2018-05-21T09:16:50.158Z,29.23
2018-05-21T09:17:50.105Z,29.21
2018-05-21T09:18:50.079Z,29.26
2018-05-21T09:19:50.061Z,28.39
2018-05-21T09:20:50.032Z,28.00
2018-05-21T09:21:50.029Z,28.40
2018-05-21T09:22:49.982Z,28.52
2018-05-21T09:23:49.945Z,28.18
2018-05-21T09:24:49.912Z,28.00
2018-05-21T09:25:49.885Z,28.09
2018-05-21T09:26:49.881Z,27.90
2018-05-21T09:27:49.835Z,27.97
2018-05-21T09:28:49.805Z,27.88
2018-05-21T09:29:49.769Z,27.46
2018-05-21T09:30:49.744Z,27.44
2018-05-21T09:31:49.744Z,27.25
2018-05-21T09:32:49.697Z,27.70
2018-05-21T09:33:49.661Z,27.99
2018-05-21T09:34:49.642Z,27.87
2018-05-21T09:35:49.603Z,27.66
2018-05-21T09:36:49.594Z,27.54
2018-05-21T09:37:49.544Z,27.74
2018-05-21T09:38:49.510Z,27.74
2018-05-21T09:39:49.492Z,27.24
2018-05-21T09:40:49.487Z,27.39
2018-05-21T09:41:49.436Z,27.24
2018-05-21T09:42:49.406Z,27.18
2018-05-21T09:43:49.372Z,27.39
2018-05-21T09:44:49.356Z,27.79
2018-05-21T09:45:49.348Z,27.97
2018-05-21T09:46:49.291Z,28.29
2018-05-21T09:47:49.259Z,27.84
2018-05-21T09:48:49.321Z,27.96
2018-05-21T09:49:49.206Z,27.99
2018-05-21T09:50:49.203Z,27.69
2018-05-21T09:51:49.157Z,27.77
2018-05-21T09:52:49.125Z,27.32
2018-05-21T09:53:49.097Z,27.31
2018-05-21T09:54:49.068Z,27.29
2018-05-21T09:55:49.065Z,27.59
2018-05-21T09:56:49.010Z,27.72
2018-05-21T09:57:48.977Z,28.00
2018-05-21T09:58:48.964Z,28.30
2018-05-21T09:59:48.926Z,28.22
2018-05-21T10:00:48.927Z,28.19
2018-05-21T10:01:48.869Z,28.24
2018-05-21T10:02:48.845Z,27.90
2018-05-21T10:03:48.860Z,28.27
2018-05-21T10:04:48.805Z,27.72
2018-05-21T10:05:48.789Z,27.24
2018-05-21T10:06:48.734Z,27.28
2018-05-21T10:07:48.701Z,26.67
2018-05-21T10:08:48.676Z,27.28
2018-05-21T10:09:48.647Z,27.65
2018-05-21T10:10:48.662Z,27.57
2018-05-21T10:11:48.598Z,27.50
2018-05-21T10:12:48.583Z,27.93
2018-05-21T10:13:48.539Z,27.57
2018-05-21T10:14:48.533Z,27.24
2018-05-21T10:15:48.478Z,27.24
2018-05-21T10:16:48.449Z,27.57
2018-05-21T10:17:48.435Z,27.41
2018-05-21T10:18:48.405Z,27.49
2018-05-21T10:19:48.393Z,27.27
2018-05-21T10:20:48.343Z,27.60
2018-05-21T10:21:48.311Z,27.92
2018-05-21T10:22:48.283Z,28.02
2018-05-21T10:23:48.263Z,28.48
2018-05-21T10:24:48.255Z,28.12
2018-05-21T10:25:48.207Z,28.00
2018-05-21T10:26:48.177Z,27.99
2018-05-21T10:27:48.146Z,28.03
2018-05-21T10:28:48.129Z,27.82
2018-05-21T10:29:48.107Z,27.93
2018-05-21T10:30:48.085Z,28.17
2018-05-21T10:31:48.049Z,27.49
2018-05-21T10:32:48.019Z,27.00
2018-05-21T10:33:47.995Z,27.12
2018-05-21T10:34:47.979Z,27.21
2018-05-21T10:35:47.935Z,27.43
2018-05-21T10:36:47.912Z,27.50
2018-05-21T10:37:47.873Z,27.51
2018-05-21T10:38:47.852Z,27.28
2018-05-21T10:39:47.837Z,27.12
2018-05-21T10:40:47.785Z,27.37
2018-05-21T10:41:47.762Z,27.93
2018-05-21T10:42:47.739Z,28.25
2018-05-21T10:43:47.764Z,28.37
2018-05-21T10:44:47.714Z,28.39
2018-05-21T10:45:47.660Z,28.36
2018-05-21T10:46:47.628Z,27.81
2018-05-21T10:47:47.599Z,27.90
2018-05-21T10:48:47.592Z,28.27
2018-05-21T10:49:47.544Z,28.56
2018-05-21T10:50:47.521Z,28.29
2018-05-21T10:51:47.490Z,28.22
2018-05-21T10:52:58.601Z,27.88
2018-05-21T10:53:47.472Z,28.31
2018-05-21T10:54:47.411Z,28.62
2018-05-21T10:55:47.388Z,28.85
2018-05-21T10:56:47.374Z,28.43
2018-05-21T10:57:47.329Z,28.46
2018-05-21T10:58:47.321Z,28.36
2018-05-21T10:59:47.283Z,28.37
2018-05-21T11:00:47.280Z,28.29
2018-05-21T11:01:47.244Z,28.11
2018-05-21T11:02:47.225Z,27.87
2018-05-21T11:03:47.199Z,27.93
2018-05-21T11:04:47.153Z,27.74
2018-05-21T11:05:47.135Z,27.90
2018-05-21T11:06:47.104Z,27.46
2018-05-21T11:07:47.071Z,27.12
2018-05-21T11:08:47.065Z,27.24
2018-05-21T11:09:47.014Z,27.59
2018-05-21T11:10:47.053Z,28.00
2018-05-21T11:11:46.962Z,28.31
2018-05-21T11:12:46.933Z,28.30
2018-05-21T11:13:46.943Z,28.19
2018-05-21T11:14:46.889Z,28.19
2018-05-21T11:15:46.866Z,27.93
2018-05-21T11:16:57.128Z,27.81
2018-05-21T11:17:46.846Z,27.78
2018-05-21T11:18:46.814Z,27.69
2018-05-21T11:19:46.760Z,27.51
2018-05-21T11:20:46.726Z,27.72
2018-05-21T11:21:46.695Z,27.74
2018-05-21T11:22:46.675Z,27.39
2018-05-21T11:23:46.683Z,27.47
2018-05-21T11:24:46.715Z,27.70
2018-05-21T11:25:46.620Z,27.69
2018-05-21T11:26:46.581Z,27.88
2018-05-21T11:27:46.568Z,28.19
2018-05-21T11:28:46.525Z,27.97
2018-05-21T11:29:46.502Z,27.94
2018-05-21T11:30:46.470Z,27.74
2018-05-21T11:31:46.460Z,27.63
2018-05-21T11:32:46.441Z,27.75
2018-05-21T11:33:46.384Z,27.81
2018-05-21T11:34:46.365Z,27.87
2018-05-21T11:35:46.352Z,27.77
2018-05-21T11:36:46.330Z,27.75
2018-05-21T11:37:46.312Z,27.60
2018-05-21T11:38:46.275Z,27.57
2018-05-21T11:39:56.657Z,27.57
2018-05-21T11:40:46.221Z,27.50
2018-05-21T11:41:46.205Z,27.34
2018-05-21T11:42:46.194Z,27.46
2018-05-21T11:43:46.154Z,27.66
2018-05-21T11:44:46.115Z,27.82
2018-05-21T11:45:46.080Z,27.63
2018-05-21T11:46:46.055Z,27.67
2018-05-21T11:47:46.058Z,27.46
2018-05-21T11:48:46.042Z,27.51
2018-05-21T11:49:45.973Z,27.37
2018-05-21T11:50:46.023Z,27.49
2018-05-21T11:51:45.925Z,27.55
2018-05-21T11:52:45.918Z,27.59
2018-05-21T11:53:45.876Z,27.55
2018-05-21T11:54:45.851Z,27.37
2018-05-21T11:55:45.822Z,27.59
2018-05-21T11:56:45.811Z,27.60
2018-05-21T11:57:45.792Z,27.59
2018-05-21T11:58:56.193Z,27.50
2018-05-21T11:59:45.715Z,27.55
2018-05-21T12:00:45.695Z,27.55
2018-05-21T12:01:45.705Z,27.46
2018-05-21T12:02:45.787Z,27.40
2018-05-21T12:03:56.726Z,27.28
2018-05-21T12:04:45.592Z,27.36
2018-05-21T12:05:45.564Z,27.51
2018-05-21T12:06:45.548Z,27.39
2018-05-21T12:07:45.533Z,27.18
2018-05-21T12:08:45.494Z,27.06
2018-05-21T12:09:45.454Z,26.91
2018-05-21T12:10:45.447Z,27.09
2018-05-21T12:11:45.428Z,27.25
2018-05-21T12:12:45.380Z,26.85
2018-05-21T12:13:45.341Z,26.89
2018-05-21T12:14:45.318Z,26.99
2018-05-21T12:15:45.299Z,26.77
2018-05-21T12:16:45.293Z,26.82
2018-05-21T12:17:45.233Z,26.85
2018-05-21T12:18:45.209Z,26.92
2018-05-21T12:19:45.180Z,26.92
2018-05-21T12:20:45.153Z,26.85
2018-05-21T12:21:45.153Z,27.03
2018-05-21T12:22:45.108Z,27.25
2018-05-21T12:23:45.083Z,27.21
2018-05-21T12:24:45.068Z,27.29
2018-05-21T12:25:45.016Z,27.43
2018-05-21T12:26:45.018Z,27.37
2018-05-21T12:27:44.965Z,27.44
2018-05-21T12:28:44.999Z,27.27
2018-05-21T12:29:44.925Z,26.81
2018-05-21T12:30:44.886Z,26.62
2018-05-21T12:31:44.880Z,26.57
2018-05-21T12:32:44.828Z,26.89
2018-05-21T12:33:44.808Z,26.94
2018-05-21T12:34:44.779Z,27.18
2018-05-21T12:35:44.755Z,27.12
2018-05-21T12:36:44.782Z,27.12
2018-05-21T12:37:44.711Z,27.13
2018-05-21T12:38:44.668Z,27.07
2018-05-21T12:39:44.649Z,27.04
2018-05-21T12:40:44.647Z,27.03
2018-05-21T12:41:44.601Z,27.10
2018-05-21T12:42:44.573Z,27.13
2018-05-21T12:43:44.552Z,27.14
2018-05-21T12:44:44.525Z,27.09
2018-05-21T12:45:44.515Z,26.84
2018-05-21T12:46:44.549Z,26.84
2018-05-21T12:47:44.461Z,26.81
2018-05-21T12:48:44.422Z,26.84
2018-05-21T12:49:44.388Z,26.81
2018-05-21T12:50:44.388Z,26.75
2018-05-21T12:51:44.336Z,26.88